Time;durP1;ratioP1;P1;durP2;ratioP2;P2;SDS_P1;SDS_P2;PMS_P1;PMS_P2;Temp;Humidity;BMP_temperature;BMP_pressure;BME280_temperature;BME280_humidity;BME280_pressure;Samples;Min_cycle;Max_cycle;Signal;HPM_P1;HPM_P2
2021/11/13 00:01:18;;;;;;;38.58;25.38;;;14.00;99.90;;;;;;6184094;23;19997;-81
2021/11/13 00:03:44;;;;;;;32.50;25.60;;;14.00;99.90;;;;;;6184696;23;20005;-83
2021/11/13 00:06:10;;;;;;;43.78;28.05;;;14.00;99.90;;;;;;6158001;23;20009;-83
2021/11/13 00:08:35;;;;;;;36.58;27.33;;;13.90;99.90;;;;;;6184655;23;20428;-84
2021/11/13 00:11:02;;;;;;;35.53;27.52;;;13.90;99.90;;;;;;6183812;23;20004;-84
2021/11/13 00:13:28;;;;;;;42.10;29.35;;;13.90;99.90;;;;;;6184642;23;20037;-83
2021/11/13 00:15:54;;;;;;;37.50;27.80;;;13.80;99.90;;;;;;6170926;23;20016;-83
2021/11/13 00:18:20;;;;;;;44.03;26.58;;;13.90;99.90;;;;;;6184674;23;20392;-83
2021/11/13 00:20:47;;;;;;;43.83;29.00;;;13.90;99.90;;;;;;6183760;23;19997;-83
2021/11/13 00:23:15;;;;;;;38.90;28.02;;;13.90;99.90;;;;;;6184372;23;20059;-84
2021/11/13 00:25:41;;;;;;;40.65;28.48;;;14.00;99.90;;;;;;6183560;23;20001;-83
2021/11/13 00:28:07;;;;;;;43.25;28.65;;;14.00;99.90;;;;;;6184382;23;20043;-83
2021/11/13 00:30:33;;;;;;;41.65;28.83;;;14.00;99.90;;;;;;6184193;23;20040;-82
2021/11/13 00:32:59;;;;;;;44.35;29.13;;;14.00;99.90;;;;;;6184254;23;20021;-81
2021/11/13 00:35:25;;;;;;;43.08;28.05;;;14.00;99.90;;;;;;6183907;23;20009;-83
2021/11/13 00:37:51;;;;;;;47.03;29.45;;;14.00;99.90;;;;;;6183197;23;20089;-83
2021/11/13 00:40:18;;;;;;;38.70;28.60;;;14.00;99.90;;;;;;6182132;23;20499;-84
2021/11/13 00:42:45;;;;;;;39.47;28.00;;;13.90;99.90;;;;;;6183963;23;20005;-84
2021/11/13 00:45:11;;;;;;;37.08;29.38;;;13.90;99.90;;;;;;6184058;23;20005;-82
2021/11/13 00:47:37;;;;;;;47.40;30.48;;;14.00;99.90;;;;;;6184361;23;20008;-82
2021/11/13 00:50:04;;;;;;;45.97;30.88;;;13.90;99.90;;;;;;6181844;23;20059;-82
2021/11/13 00:52:30;;;;;;;50.05;30.75;;;13.90;99.90;;;;;;6184388;23;20001;-82
2021/11/13 00:54:55;;;;;;;49.20;30.40;;;14.00;99.90;;;;;;6182320;23;20037;-83
2021/11/13 00:57:21;;;;;;;45.20;28.42;;;14.00;99.90;;;;;;6184057;23;20005;-83
2021/11/13 00:59:47;;;;;;;45.63;29.77;;;14.00;99.90;;;;;;6184228;23;20001;-82
2021/11/13 01:02:12;;;;;;;41.70;27.25;;;14.00;99.90;;;;;;6184377;23;20338;-83
2021/11/13 01:04:38;;;;;;;44.83;26.17;;;13.90;99.90;;;;;;6182492;23;20020;-83
2021/11/13 01:07:04;;;;;;;39.50;24.83;;;13.90;99.90;;;;;;6183942;23;20004;-83
2021/11/13 01:09:30;;;;;;;36.92;24.55;;;13.90;99.90;;;;;;6184294;23;20003;-84
2021/11/13 01:11:57;;;;;;;39.67;25.15;;;13.80;99.90;;;;;;6182200;23;20380;-83
2021/11/13 01:14:25;;;;;;;36.45;22.60;;;13.80;99.90;;;;;;6182618;23;20005;-82
2021/11/13 01:16:51;;;;;;;40.47;24.85;;;13.80;99.90;;;;;;6183893;23;20096;-82
2021/11/13 01:19:16;;;;;;;34.50;24.15;;;13.80;99.90;;;;;;6184345;23;20032;-81
2021/11/13 01:21:42;;;;;;;42.85;24.83;;;13.80;99.90;;;;;;6183666;23;19997;-83
2021/11/13 01:24:09;;;;;;;38.65;24.60;;;13.80;99.90;;;;;;6183788;23;20415;-81
2021/11/13 01:26:34;;;;;;;32.85;23.58;;;13.80;99.90;;;;;;6183280;23;20009;-82
2021/11/13 01:29:00;;;;;;;45.83;24.45;;;13.90;99.90;;;;;;6184020;23;20005;-83
2021/11/13 01:31:26;;;;;;;40.35;24.60;;;13.90;99.90;;;;;;6157067;23;20001;-83
2021/11/13 01:33:56;;;;;;;35.90;24.35;;;13.90;99.90;;;;;;6157561;23;20009;-82
2021/11/13 01:36:22;;;;;;;34.80;23.35;;;13.90;99.90;;;;;;6183701;23;20001;-81
2021/11/13 01:38:47;;;;;;;38.03;23.63;;;13.90;99.90;;;;;;6183834;23;20392;-82
2021/11/13 01:41:13;;;;;;;36.85;23.17;;;13.90;99.90;;;;;;6183148;23;20600;-81
2021/11/13 01:43:40;;;;;;;35.92;22.52;;;14.00;99.90;;;;;;6183703;23;20012;-82
2021/11/13 01:46:08;;;;;;;35.00;22.42;;;14.00;99.90;;;;;;6183344;23;19997;-79
2021/11/13 01:48:34;;;;;;;33.15;23.40;;;14.00;99.90;;;;;;6183749;23;20445;-79
2021/11/13 01:51:00;;;;;;;29.73;22.92;;;14.00;99.90;;;;;;6182903;23;20008;-78
2021/11/13 01:53:28;;;;;;;37.17;23.40;;;14.00;99.90;;;;;;6157333;23;20002;-80
2021/11/13 01:55:56;;;;;;;35.45;24.52;;;14.00;99.90;;;;;;6182878;23;20005;-81
2021/11/13 01:58:22;;;;;;;36.53;22.70;;;14.00;99.90;;;;;;6157644;23;20084;-81
2021/11/13 02:00:54;;;;;;;33.00;23.40;;;13.90;99.90;;;;;;6156756;23;20004;-80
2021/11/13 02:03:22;;;;;;;35.55;23.58;;;14.00;99.90;;;;;;6183908;23;20012;-82
2021/11/13 02:05:49;;;;;;;39.75;24.20;;;13.90;99.90;;;;;;6156741;23;19998;-81
2021/11/13 02:08:16;;;;;;;38.42;23.60;;;13.90;99.90;;;;;;6183540;23;20052;-82
2021/11/13 02:10:42;;;;;;;35.58;22.80;;;13.80;99.90;;;;;;6183239;23;20055;-82
2021/11/13 02:13:08;;;;;;;41.70;24.33;;;13.80;99.90;;;;;;6183517;23;20575;-81
2021/11/13 02:15:34;;;;;;;36.10;22.67;;;13.80;99.90;;;;;;6165675;23;20072;-83
2021/11/13 02:18:00;;;;;;;31.73;23.38;;;13.80;99.90;;;;;;6183589;23;20000;-83
2021/11/13 02:20:38;;;;;;;31.48;22.10;;;13.90;99.90;;;;;;6181436;23;20084;-81
2021/11/13 02:23:14;;;;;;;32.20;23.02;;;13.90;99.90;;;;;;6181970;23;20495;-81
2021/11/13 02:25:40;;;;;;;29.90;21.38;;;14.00;99.90;;;;;;6183008;23;20436;-81
2021/11/13 02:28:08;;;;;;;40.70;22.23;;;14.00;99.90;;;;;;6182061;23;20344;-81
2021/11/13 02:30:35;;;;;;;37.88;23.30;;;14.00;99.90;;;;;;6183103;23;20001;-82
2021/11/13 02:33:01;;;;;;;39.35;22.17;;;14.00;99.90;;;;;;6182141;23;20060;-80
2021/11/13 02:35:31;;;;;;;30.33;21.83;;;14.00;99.90;;;;;;6182929;23;20027;-79
2021/11/13 02:37:58;;;;;;;34.70;21.75;;;14.00;99.90;;;;;;6183642;23;19997;-80
2021/11/13 02:40:24;;;;;;;32.75;21.17;;;14.00;99.90;;;;;;6182673;23;20012;-80
2021/11/13 02:42:50;;;;;;;31.33;21.77;;;14.00;99.90;;;;;;6181780;23;19997;-81
2021/11/13 02:45:17;;;;;;;31.15;22.35;;;14.00;99.90;;;;;;6183008;23;20012;-82
2021/11/13 02:47:46;;;;;;;38.92;22.52;;;13.90;99.90;;;;;;6183755;23;19997;-82
2021/11/13 02:50:15;;;;;;;42.13;22.85;;;13.80;99.90;;;;;;6181729;23;20339;-83
2021/11/13 02:52:47;;;;;;;30.05;22.42;;;13.80;99.90;;;;;;6183586;23;20001;-82
2021/11/13 02:55:14;;;;;;;30.77;20.83;;;13.90;99.90;;;;;;6181538;23;20083;-81
2021/11/13 02:57:40;;;;;;;32.20;21.90;;;13.90;99.90;;;;;;6181861;23;20005;-82
2021/11/13 03:00:10;;;;;;;34.92;23.00;;;13.90;99.90;;;;;;6181199;23;20087;-82
2021/11/13 03:02:37;;;;;;;30.02;21.45;;;13.90;99.90;;;;;;6183479;23;20095;-82
2021/11/13 03:05:04;;;;;;;33.92;22.15;;;13.90;99.90;;;;;;6183175;23;20472;-83
2021/11/13 03:07:30;;;;;;;29.05;21.45;;;13.90;99.90;;;;;;6183145;23;19997;-82
2021/11/13 03:09:55;;;;;;;29.77;21.75;;;13.90;99.90;;;;;;6182502;23;20012;-81
2021/11/13 03:12:21;;;;;;;37.25;21.38;;;13.90;99.90;;;;;;6183075;23;20436;-81
2021/11/13 03:14:47;;;;;;;31.63;22.45;;;13.90;99.90;;;;;;6182799;23;20399;-81
2021/11/13 03:17:13;;;;;;;38.00;22.52;;;13.90;99.90;;;;;;6183153;23;20331;-81
2021/11/13 03:19:38;;;;;;;30.60;21.50;;;14.00;99.90;;;;;;6183040;23;20005;-82
2021/11/13 03:22:04;;;;;;;37.45;23.33;;;13.90;99.90;;;;;;6183116;23;20328;-81
2021/11/13 03:24:30;;;;;;;34.42;22.45;;;13.90;99.90;;;;;;6156771;23;20020;-81
2021/11/13 03:26:59;;;;;;;33.60;22.52;;;13.80;99.90;;;;;;6158277;23;20079;-81
2021/11/13 03:29:33;;;;;;;34.10;21.35;;;13.80;99.90;;;;;;6158820;23;20459;-81
2021/11/13 03:31:59;;;;;;;35.22;20.80;;;13.80;99.90;;;;;;6185173;23;20462;-81
2021/11/13 03:34:25;;;;;;;32.33;21.48;;;13.80;99.90;;;;;;6184968;23;20005;-81
2021/11/13 03:36:50;;;;;;;34.78;22.20;;;13.80;99.90;;;;;;6184864;23;20473;-81
2021/11/13 03:39:16;;;;;;;33.67;21.58;;;13.80;99.90;;;;;;6158654;23;20459;-81
2021/11/13 03:41:42;;;;;;;30.63;21.05;;;13.90;99.90;;;;;;6184621;23;20082;-81
2021/11/13 03:44:08;;;;;;;31.75;21.48;;;13.90;99.90;;;;;;6184877;23;20013;-82
2021/11/13 03:46:33;;;;;;;29.33;21.27;;;13.80;99.90;;;;;;6184861;23;20004;-79
2021/11/13 03:48:59;;;;;;;33.50;22.67;;;13.80;99.90;;;;;;6184910;23;20005;-81
2021/11/13 03:51:25;;;;;;;31.40;21.38;;;13.80;99.90;;;;;;6184506;23;20375;-81
2021/11/13 03:53:51;;;;;;;37.80;22.77;;;13.90;99.90;;;;;;6185078;23;20266;-82
2021/11/13 03:56:17;;;;;;;37.72;22.23;;;13.90;99.90;;;;;;6184187;23;20001;-80
2021/11/13 03:58:43;;;;;;;32.35;22.45;;;13.90;99.90;;;;;;6185105;23;20005;-82
2021/11/13 04:01:08;;;;;;;34.75;22.75;;;14.00;99.90;;;;;;6184593;23;20071;-81
2021/11/13 04:03:34;;;;;;;34.17;21.88;;;14.00;99.90;;;;;;6184556;23;20005;-80
2021/11/13 04:06:00;;;;;;;32.05;20.45;;;14.00;99.90;;;;;;6184534;23;20056;-80
2021/11/13 04:08:26;;;;;;;37.63;21.33;;;13.90;99.90;;;;;;6158560;23;20405;-81
2021/11/13 04:10:51;;;;;;;30.98;21.77;;;13.90;99.90;;;;;;6183946;23;20570;-81
2021/11/13 04:13:17;;;;;;;28.10;20.27;;;13.90;99.90;;;;;;6184757;23;20425;-82
2021/11/13 04:15:43;;;;;;;31.08;21.23;;;14.00;99.90;;;;;;6184117;23;20088;-81
2021/11/13 04:18:09;;;;;;;30.42;21.25;;;14.00;99.90;;;;;;6184945;23;20008;-82
2021/11/13 04:20:34;;;;;;;34.88;22.77;;;14.00;99.90;;;;;;6184641;23;20309;-81
2021/11/13 04:23:00;;;;;;;28.08;21.80;;;13.90;99.90;;;;;;6157757;23;20005;-81
2021/11/13 04:25:27;;;;;;;32.38;23.52;;;14.00;99.90;;;;;;6184134;23;20009;-82
2021/11/13 04:27:53;;;;;;;35.63;23.23;;;14.00;99.90;;;;;;6184623;23;20001;-81
2021/11/13 04:30:19;;;;;;;32.35;23.58;;;14.00;99.90;;;;;;6184203;23;20005;-81
2021/11/13 04:32:48;;;;;;;30.33;22.10;;;14.00;99.90;;;;;;6184801;23;20008;-83
2021/11/13 04:35:47;;;;;;;37.13;22.65;;;14.00;99.90;;;;;;6184364;23;20005;-82
2021/11/13 04:38:03;;;;;;;33.92;24.90;;;14.00;99.90;;;;;;6183655;23;20001;-81
2021/11/13 04:40:31;;;;;;;34.50;24.05;;;14.00;99.90;;;;;;6184521;23;20011;-82
2021/11/13 04:42:57;;;;;;;47.33;27.50;;;14.00;99.90;;;;;;6158255;23;20496;-81
2021/11/13 04:45:23;;;;;;;31.17;24.85;;;14.00;99.90;;;;;;6184070;23;20012;-81
2021/11/13 04:47:49;;;;;;;35.38;24.73;;;14.00;99.90;;;;;;6157901;23;20332;-80
2021/11/13 04:50:18;;;;;;;40.00;26.35;;;14.00;99.90;;;;;;6157525;23;20005;-82
2021/11/13 04:52:45;;;;;;;36.75;26.83;;;14.10;99.90;;;;;;6184491;23;19993;-82
2021/11/13 04:55:12;;;;;;;40.83;27.05;;;14.10;99.90;;;;;;6183440;23;20044;-82
2021/11/13 04:57:38;;;;;;;45.95;29.25;;;14.10;99.90;;;;;;6184135;23;19997;-82
2021/11/13 05:00:08;;;;;;;39.35;28.27;;;14.00;99.90;;;;;;6183705;23;20008;-82
2021/11/13 05:02:34;;;;;;;39.60;27.23;;;14.00;99.90;;;;;;6183893;23;19997;-82
2021/11/13 05:04:59;;;;;;;40.25;27.77;;;14.00;99.90;;;;;;6183263;23;20052;-82
2021/11/13 05:07:25;;;;;;;40.47;28.00;;;14.00;99.90;;;;;;6184424;23;20010;-82
2021/11/13 05:09:52;;;;;;;33.50;26.55;;;14.00;99.90;;;;;;6156969;23;20020;-82
2021/11/13 05:12:18;;;;;;;31.95;24.45;;;14.00;99.90;;;;;;6157319;23;20349;-84
2021/11/13 05:14:44;;;;;;;36.63;25.88;;;14.00;99.90;;;;;;6157052;23;20066;-84
2021/11/13 05:17:10;;;;;;;36.55;25.42;;;14.00;99.90;;;;;;6157354;23;20024;-84
2021/11/13 05:19:37;;;;;;;40.72;24.65;;;14.00;99.90;;;;;;6157312;23;20443;-84
2021/11/13 05:22:03;;;;;;;31.02;22.52;;;14.00;99.90;;;;;;6157061;23;20327;-81
2021/11/13 05:24:29;;;;;;;39.00;23.00;;;14.00;99.90;;;;;;6157402;23;20071;-85
2021/11/13 05:26:55;;;;;;;36.10;24.65;;;14.10;99.90;;;;;;6183165;23;19997;-85
2021/11/13 05:29:20;;;;;;;35.60;24.00;;;14.10;99.90;;;;;;6183392;23;20009;-84
2021/11/13 05:31:46;;;;;;;37.22;23.67;;;14.00;99.90;;;;;;6183502;23;20444;-82
2021/11/13 05:34:13;;;;;;;42.35;23.98;;;14.10;99.90;;;;;;6157798;23;20013;-82
2021/11/13 05:36:40;;;;;;;35.03;23.38;;;14.20;99.90;;;;;;6157263;23;20453;-81
2021/11/13 05:39:06;;;;;;;33.05;23.80;;;14.20;99.90;;;;;;6157688;23;20037;-82
2021/11/13 05:41:32;;;;;;;36.22;24.63;;;14.20;99.90;;;;;;6157079;23;20009;-82
2021/11/13 05:43:57;;;;;;;35.13;24.73;;;14.30;99.90;;;;;;6183932;23;20067;-82
2021/11/13 05:46:23;;;;;;;39.75;23.67;;;14.30;99.90;;;;;;6183390;23;19997;-81
2021/11/13 05:48:49;;;;;;;31.27;24.15;;;14.20;99.90;;;;;;6183379;23;20009;-83
2021/11/13 05:51:14;;;;;;;34.60;23.33;;;14.20;99.90;;;;;;6183072;23;20433;-83
2021/11/13 05:53:40;;;;;;;31.67;22.77;;;14.20;99.90;;;;;;6183689;23;20472;-83
2021/11/13 05:56:06;;;;;;;29.55;23.73;;;14.20;99.90;;;;;;6183218;23;20056;-83
2021/11/13 05:58:31;;;;;;;32.95;23.58;;;14.20;99.90;;;;;;6183901;23;20035;-83
2021/11/13 06:00:57;;;;;;;31.13;22.60;;;14.20;99.90;;;;;;6156798;23;20095;-83
2021/11/13 06:03:23;;;;;;;34.97;23.08;;;14.20;99.90;;;;;;6183402;23;20088;-82
2021/11/13 06:05:48;;;;;;;39.58;25.38;;;14.30;99.90;;;;;;6183036;23;20009;-82
2021/11/13 06:08:14;;;;;;;36.50;26.60;;;14.20;99.90;;;;;;6183175;23;20420;-84
2021/11/13 06:10:40;;;;;;;39.35;25.75;;;14.10;99.90;;;;;;6156616;23;20009;-83
2021/11/13 06:13:06;;;;;;;35.58;26.33;;;14.00;99.90;;;;;;6157141;23;20032;-83
2021/11/13 06:15:31;;;;;;;38.55;26.08;;;13.90;99.90;;;;;;6165065;23;20017;-82
2021/11/13 06:17:57;;;;;;;38.38;24.30;;;13.90;99.90;;;;;;6181984;23;20128;-83
2021/11/13 06:20:24;;;;;;;36.80;27.17;;;13.90;99.90;;;;;;6183050;23;20005;-83
2021/11/13 06:22:49;;;;;;;38.88;27.42;;;14.00;99.90;;;;;;6183666;23;20390;-83
2021/11/13 06:25:16;;;;;;;41.63;27.73;;;13.90;99.90;;;;;;6182655;23;20035;-83
2021/11/13 06:27:42;;;;;;;47.03;30.58;;;13.90;99.90;;;;;;6183450;23;20027;-82
2021/11/13 06:30:11;;;;;;;46.53;31.42;;;13.90;99.90;;;;;;6181233;23;20013;-83
2021/11/13 06:32:38;;;;;;;53.83;31.30;;;13.90;99.90;;;;;;6183657;23;20507;-83
2021/11/13 06:35:05;;;;;;;56.95;34.30;;;13.90;99.90;;;;;;6183123;23;20155;-83
2021/11/13 06:37:31;;;;;;;48.80;32.80;;;13.90;99.90;;;;;;6181768;23;20328;-83
2021/11/13 06:39:56;;;;;;;58.35;36.13;;;14.00;99.90;;;;;;6182916;23;20004;-82
2021/11/13 06:42:22;;;;;;;52.05;33.83;;;14.00;99.90;;;;;;6183371;23;20083;-83
2021/11/13 06:44:48;;;;;;;53.60;35.50;;;14.10;99.90;;;;;;6182935;23;20407;-82
2021/11/13 06:47:14;;;;;;;70.10;40.35;;;14.10;99.90;;;;;;6182369;23;20043;-83
2021/11/13 06:49:39;;;;;;;62.08;39.58;;;14.20;99.90;;;;;;6182950;23;20075;-83
2021/11/13 06:52:06;;;;;;;63.75;39.45;;;14.20;99.90;;;;;;6183293;23;19997;-83
2021/11/13 06:54:31;;;;;;;61.78;40.20;;;14.20;99.90;;;;;;6183487;23;20032;-83
2021/11/13 06:56:58;;;;;;;73.10;41.78;;;14.20;99.90;;;;;;6183248;23;20004;-84
2021/11/13 06:59:24;;;;;;;66.00;40.47;;;14.10;99.90;;;;;;6181919;23;20011;-83
2021/11/13 07:01:50;;;;;;;63.15;40.30;;;14.20;99.90;;;;;;6180945;23;20088;-82
2021/11/13 07:04:16;;;;;;;66.65;40.35;;;14.20;99.90;;;;;;6183324;23;20009;-81
2021/11/13 07:06:42;;;;;;;62.22;39.47;;;14.40;99.90;;;;;;6183056;23;20005;-82
2021/11/13 07:09:07;;;;;;;71.63;40.13;;;14.50;99.90;;;;;;6183366;23;20028;-84
2021/11/13 07:11:33;;;;;;;62.50;38.78;;;14.50;99.90;;;;;;6182830;23;20028;-82
2021/11/13 07:13:59;;;;;;;59.50;39.58;;;14.40;99.90;;;;;;6182956;23;20365;-82
2021/11/13 07:16:25;;;;;;;65.40;42.63;;;14.50;99.90;;;;;;6180718;23;20337;-83
2021/11/13 07:18:51;;;;;;;61.88;41.40;;;14.50;99.90;;;;;;6182719;23;20001;-82
2021/11/13 07:21:16;;;;;;;63.65;41.13;;;14.40;99.90;;;;;;6181809;23;20005;-83
2021/11/13 07:23:43;;;;;;;62.72;36.20;;;14.50;99.90;;;;;;6183313;23;20148;-83
2021/11/13 07:26:10;;;;;;;54.17;32.45;;;14.60;99.90;;;;;;6182623;23;20001;-82
2021/11/13 07:28:41;;;;;;;39.80;29.48;;;14.70;99.90;;;;;;6183285;23;20372;-84
2021/11/13 07:31:08;;;;;;;44.67;28.60;;;14.80;99.90;;;;;;6183895;23;20068;-83
2021/11/13 07:33:35;;;;;;;35.97;26.98;;;14.80;99.90;;;;;;6184419;23;20008;-83
2021/11/13 07:36:01;;;;;;;41.25;27.17;;;14.90;99.90;;;;;;6184974;23;20302;-84
2021/11/13 07:38:27;;;;;;;36.53;26.27;;;14.90;99.90;;;;;;6182659;23;20009;-84
2021/11/13 07:40:53;;;;;;;41.55;26.38;;;14.90;99.90;;;;;;6183542;23;20001;-84
2021/11/13 07:43:18;;;;;;;36.83;25.60;;;14.90;99.90;;;;;;6184740;23;20005;-84
2021/11/13 07:45:45;;;;;;;37.70;26.95;;;14.90;99.90;;;;;;6183808;23;20455;-83
2021/11/13 07:48:10;;;;;;;39.25;27.88;;;15.00;99.90;;;;;;6184675;23;20024;-83
2021/11/13 07:50:37;;;;;;;33.38;25.65;;;15.00;99.90;;;;;;6183506;23;20332;-83
2021/11/13 07:53:06;;;;;;;40.83;26.33;;;15.10;99.90;;;;;;6181638;23;20306;-81
2021/11/13 07:55:33;;;;;;;33.55;25.20;;;15.10;99.90;;;;;;6183889;23;20033;-83
2021/11/13 07:57:59;;;;;;;43.83;26.65;;;15.10;99.90;;;;;;6183268;23;20001;-87
2021/11/13 08:00:28;;;;;;;37.00;25.67;;;15.20;99.90;;;;;;6187024;23;20462;-80
2021/11/13 08:02:55;;;;;;;39.13;26.48;;;15.20;99.90;;;;;;6182920;23;19997;-82
2021/11/13 08:05:22;;;;;;;37.22;26.50;;;15.30;99.90;;;;;;6183316;23;20060;-81
2021/11/13 08:07:48;;;;;;;39.30;25.95;;;15.20;99.90;;;;;;6185123;23;20013;-81
2021/11/13 08:10:15;;;;;;;42.55;27.92;;;15.30;99.90;;;;;;6187544;23;20005;-83
2021/11/13 08:12:41;;;;;;;38.28;27.17;;;15.40;99.90;;;;;;6184461;23;20008;-80
2021/11/13 08:15:08;;;;;;;38.13;26.83;;;15.50;99.90;;;;;;6183220;23;20598;-82
2021/11/13 08:17:35;;;;;;;41.15;27.88;;;15.50;99.90;;;;;;6158300;23;20331;-84
2021/11/13 08:20:01;;;;;;;37.45;27.30;;;15.60;99.90;;;;;;6158580;23;20013;-81
2021/11/13 08:22:27;;;;;;;40.90;28.30;;;15.50;99.90;;;;;;6186827;23;20012;-82
2021/11/13 08:24:52;;;;;;;39.50;27.35;;;15.40;99.90;;;;;;6158906;23;20076;-81
2021/11/13 08:27:18;;;;;;;36.88;26.30;;;15.40;99.90;;;;;;6163114;23;20008;-80
2021/11/13 08:29:44;;;;;;;36.53;26.50;;;15.40;99.90;;;;;;6170016;23;20009;-87
2021/11/13 08:48:44;;;;;;;47.58;32.22;;;15.20;99.90;;;;;;6269406;22;1349099;-82
2021/11/13 08:51:10;;;;;;;40.85;31.27;;;15.10;99.90;;;;;;6246431;22;20012;-85
2021/11/13 08:53:36;;;;;;;49.05;32.78;;;15.10;99.90;;;;;;6251453;22;20035;-83
2021/11/13 08:56:03;;;;;;;56.42;33.67;;;15.10;99.90;;;;;;6250949;22;20008;-84
2021/11/13 08:58:28;;;;;;;47.97;31.80;;;15.10;99.90;;;;;;6253538;22;20030;-84
2021/11/13 09:01:03;;;;;;;51.75;32.85;;;15.10;99.90;;;;;;6252489;22;19996;-83
2021/11/13 09:03:38;;;;;;;46.00;32.75;;;15.00;99.90;;;;;;6253169;22;20004;-82
2021/11/13 09:06:10;;;;;;;53.03;34.30;;;14.90;99.90;;;;;;6252926;22;20035;-83
2021/11/13 09:08:37;;;;;;;54.38;34.45;;;14.80;99.90;;;;;;6251918;22;20008;-83
2021/11/13 09:11:05;;;;;;;59.70;36.30;;;14.80;99.90;;;;;;6252354;22;20095;-84
2021/11/13 09:13:31;;;;;;;54.30;37.40;;;14.80;99.90;;;;;;6250680;22;20092;-84
2021/11/13 09:16:00;;;;;;;57.10;40.13;;;14.80;99.90;;;;;;6249813;23;20489;-84
2021/11/13 09:18:26;;;;;;;62.03;40.55;;;14.80;99.90;;;;;;6252992;22;20058;-82
2021/11/13 09:20:52;;;;;;;63.30;43.63;;;14.80;99.90;;;;;;6251893;22;20091;-86
2021/11/13 09:23:18;;;;;;;62.28;42.22;;;14.80;99.90;;;;;;6252700;22;20000;-84
2021/11/13 09:25:45;;;;;;;62.72;42.97;;;14.90;99.90;;;;;;6252021;22;20000;-83
2021/11/13 09:28:12;;;;;;;63.70;41.45;;;14.90;99.90;;;;;;6251071;23;20005;-84
2021/11/13 09:30:39;;;;;;;60.15;40.17;;;14.90;99.90;;;;;;6251666;22;20013;-83
2021/11/13 09:33:07;;;;;;;61.67;41.20;;;14.90;99.90;;;;;;6252594;22;19996;-84
2021/11/13 09:35:34;;;;;;;62.65;39.55;;;15.00;99.90;;;;;;6248292;23;20008;-84
2021/11/13 09:38:01;;;;;;;59.92;40.28;;;15.00;99.90;;;;;;6252915;22;20427;-86
2021/11/13 09:40:28;;;;;;;65.85;42.33;;;15.10;99.90;;;;;;6252138;22;20003;-84
2021/11/13 09:42:57;;;;;;;63.03;40.08;;;15.30;99.90;;;;;;6251539;22;20007;-84
2021/11/13 09:45:23;;;;;;;62.08;40.88;;;15.40;99.90;;;;;;6253087;22;20006;-84
2021/11/13 09:47:52;;;;;;;58.15;41.63;;;15.50;99.90;;;;;;6251014;22;20007;-83
2021/11/13 09:50:20;;;;;;;58.15;39.78;;;15.60;99.90;;;;;;6303050;22;20015;-85
2021/11/13 09:52:46;;;;;;;59.88;39.60;;;15.60;99.90;;;;;;6307672;22;20322;-84
2021/11/13 09:55:14;;;;;;;61.92;38.97;;;15.60;99.90;;;;;;6279887;22;20098;-85
2021/11/13 09:57:40;;;;;;;65.30;38.88;;;15.60;99.90;;;;;;6306254;22;20011;-86
2021/11/13 10:00:09;;;;;;;62.08;38.28;;;15.70;99.90;;;;;;6277638;22;20007;-85
2021/11/13 10:02:34;;;;;;;63.38;37.55;;;15.80;99.90;;;;;;6305119;22;20030;-84
2021/11/13 10:05:00;;;;;;;63.17;38.72;;;15.80;99.90;;;;;;6304507;22;19999;-84
2021/11/13 10:07:27;;;;;;;63.92;38.28;;;15.80;99.90;;;;;;6306188;22;20006;-85
2021/11/13 10:09:52;;;;;;;60.38;38.22;;;15.70;99.90;;;;;;6305998;22;19999;-86
2021/11/13 10:12:35;;;;;;;56.83;39.85;;;15.70;99.90;;;;;;6280278;22;19995;-85
2021/11/13 10:15:21;;;;;;;62.22;36.97;;;15.70;99.90;;;;;;6307173;22;19996;-86
2021/11/13 10:18:09;;;;;;;63.13;39.53;;;15.70;99.90;;;;;;6278728;22;20053;-82
2021/11/13 10:20:45;;;;;;;58.58;38.65;;;15.50;99.90;;;;;;6306916;22;20597;-85
2021/11/13 10:23:31;;;;;;;56.05;36.15;;;15.50;99.90;;;;;;6277951;22;20180;-85
2021/11/13 10:26:02;;;;;;;55.00;36.15;;;15.60;99.90;;;;;;6305929;22;20437;-84
2021/11/13 10:28:30;;;;;;;54.45;36.88;;;15.50;99.90;;;;;;6306861;22;20495;-85
2021/11/13 10:31:15;;;;;;;55.83;39.15;;;15.40;99.90;;;;;;6308143;22;20208;-86
2021/11/13 10:33:41;;;;;;;59.08;38.47;;;15.30;99.90;;;;;;6306875;22;20057;-85
2021/11/13 10:36:08;;;;;;;57.67;37.75;;;15.30;99.90;;;;;;6307334;22;20429;-85
2021/11/13 10:38:34;;;;;;;60.92;37.90;;;15.30;99.90;;;;;;6307472;22;20003;-86
2021/11/13 10:41:08;;;;;;;55.97;37.28;;;15.20;99.90;;;;;;6307366;22;19999;-86
2021/11/13 10:43:37;;;;;;;58.10;35.88;;;15.20;99.90;;;;;;6307316;22;20011;-84
2021/11/13 10:46:09;;;;;;;52.65;37.40;;;15.20;99.90;;;;;;6306073;22;20433;-86
2021/11/13 10:49:02;;;;;;;56.20;35.65;;;15.20;99.90;;;;;;6307401;22;20034;-83
2021/11/13 10:51:31;;;;;;;52.65;36.40;;;15.30;99.90;;;;;;6273776;22;20003;-84
2021/11/13 10:54:06;;;;;;;57.42;34.17;;;15.30;99.90;;;;;;6311172;22;19996;-86
2021/11/13 10:56:36;;;;;;;53.30;36.85;;;15.30;99.90;;;;;;6279681;22;20007;-85
2021/11/13 10:59:04;;;;;;;53.63;34.17;;;15.40;99.90;;;;;;6306699;22;20007;-84
2021/11/13 11:01:47;;;;;;;50.15;32.88;;;15.60;99.90;;;;;;6307360;22;20453;-86
2021/11/13 11:04:18;;;;;;;50.08;33.38;;;15.70;99.90;;;;;;6307889;22;19999;-85
2021/11/13 11:07:12;;;;;;;55.53;33.90;;;15.80;99.90;;;;;;6307203;22;19999;-86
2021/11/13 11:09:45;;;;;;;45.58;32.45;;;16.10;99.90;;;;;;6306280;22;20026;-86
2021/11/13 11:12:11;;;;;;;48.08;32.63;;;16.40;99.90;;;;;;6306924;22;20426;-86
2021/11/13 11:14:40;;;;;;;45.70;32.10;;;16.60;99.90;;;;;;6280557;22;20030;-84
2021/11/13 11:17:12;;;;;;;54.53;31.20;;;16.70;99.90;;;;;;6307430;22;20038;-85
2021/11/13 11:19:38;;;;;;;49.97;33.30;;;16.70;99.90;;;;;;6306519;22;20006;-85
2021/11/13 11:22:15;;;;;;;47.40;31.23;;;16.90;99.90;;;;;;6308399;22;19999;-86
2021/11/13 11:24:47;;;;;;;45.20;31.77;;;17.00;99.90;;;;;;6282431;22;20057;-84
2021/11/13 11:27:28;;;;;;;47.53;31.55;;;17.10;99.90;;;;;;6279183;22;20085;-85
2021/11/13 11:30:04;;;;;;;51.28;33.50;;;17.10;99.90;;;;;;6306680;22;20003;-85
2021/11/13 11:32:35;;;;;;;47.30;32.20;;;17.10;99.90;;;;;;6308322;22;20430;-85
2021/11/13 11:35:08;;;;;;;42.15;31.48;;;17.20;99.90;;;;;;6282438;22;19995;-85
2021/11/13 11:37:39;;;;;;;61.45;32.60;;;17.20;99.90;;;;;;6312333;22;20007;-85
2021/11/13 11:40:11;;;;;;;49.88;32.53;;;17.20;99.90;;;;;;6281595;22;20434;-85
2021/11/13 11:42:39;;;;;;;47.90;32.90;;;17.20;99.90;;;;;;6308263;22;20030;-86
2021/11/13 11:45:07;;;;;;;47.95;32.42;;;17.20;99.90;;;;;;6279609;22;19999;-84
2021/11/13 11:47:33;;;;;;;48.08;31.63;;;17.20;99.90;;;;;;6307907;22;19999;-86
2021/11/13 11:50:03;;;;;;;50.90;33.05;;;17.20;99.90;;;;;;6278515;22;20031;-86
2021/11/13 11:52:30;;;;;;;50.83;33.78;;;17.10;99.90;;;;;;6306475;22;20027;-85
2021/11/13 11:54:57;;;;;;;54.40;34.47;;;17.10;99.90;;;;;;6306183;22;20007;-84
2021/11/13 11:57:33;;;;;;;49.33;33.55;;;17.00;99.90;;;;;;6306141;22;20056;-86
2021/11/13 12:00:01;;;;;;;58.88;35.97;;;17.00;99.90;;;;;;6306484;22;20003;-84
2021/11/13 12:02:41;;;;;;;48.33;32.95;;;16.90;99.90;;;;;;6306070;22;20029;-83
2021/11/13 12:05:10;;;;;;;54.85;34.72;;;16.90;99.90;;;;;;6305658;22;20419;-84
2021/11/13 12:07:37;;;;;;;58.13;34.70;;;16.80;99.90;;;;;;6306930;22;20330;-85
2021/11/13 12:10:08;;;;;;;58.40;34.25;;;16.80;99.90;;;;;;6305624;22;20134;-84
2021/11/13 12:12:34;;;;;;;54.08;35.17;;;16.90;99.90;;;;;;6306086;22;19999;-85
2021/11/13 12:15:18;;;;;;;50.75;33.08;;;16.90;99.90;;;;;;6306595;22;20005;-84
2021/11/13 12:17:49;;;;;;;57.13;35.70;;;16.90;99.90;;;;;;6281885;22;20011;-83
2021/11/13 12:20:22;;;;;;;54.65;36.08;;;17.00;99.90;;;;;;6312317;22;20019;-85
2021/11/13 12:22:54;;;;;;;57.78;36.75;;;17.00;99.90;;;;;;6311054;22;20074;-87
2021/11/13 12:25:23;;;;;;;54.30;36.38;;;17.00;99.90;;;;;;6287498;22;19999;-86
2021/11/13 12:28:10;;;;;;;53.42;35.53;;;16.90;99.90;;;;;;6292675;22;19987;-87
2021/11/13 12:31:04;;;;;;;54.47;35.70;;;16.80;99.90;;;;;;6311126;22;19992;-88
2021/11/13 12:33:29;;;;;;;67.43;40.47;;;16.80;99.90;;;;;;6282920;22;20053;-90
2021/11/13 12:35:58;;;;;;;56.58;35.03;;;16.90;99.90;;;;;;6281238;22;20006;-85
2021/11/13 12:38:52;;;;;;;64.13;36.72;;;17.00;99.90;;;;;;6306701;22;19999;-88
2021/11/13 12:41:18;;;;;;;59.72;36.00;;;17.00;99.90;;;;;;6279559;22;20003;-87
2021/11/13 12:43:56;;;;;;;56.20;33.85;;;16.80;99.90;;;;;;6306603;22;20033;-85
2021/11/13 12:46:49;;;;;;;59.42;37.92;;;16.60;99.90;;;;;;6305635;22;20003;-85